createdAt,value
2023-01-20T00:02:51.735Z,1.60
2023-01-20T00:07:00.278Z,1.70
2023-01-20T00:11:12.067Z,1.70
2023-01-20T00:15:20.587Z,1.60
2023-01-20T00:19:29.142Z,1.70
2023-01-20T00:23:37.766Z,1.70
2023-01-20T00:27:46.672Z,1.80
2023-01-20T00:31:55.204Z,1.80
2023-01-20T00:36:03.811Z,1.80
2023-01-20T00:40:12.935Z,1.80
2023-01-20T00:44:21.608Z,1.70
2023-01-20T00:48:30.187Z,1.70
2023-01-20T00:52:38.763Z,1.70
2023-01-20T00:56:47.296Z,1.80
2023-01-20T01:00:58.614Z,1.80
2023-01-20T01:05:07.746Z,1.80
2023-01-20T01:09:35.806Z,1.80
2023-01-20T01:13:44.433Z,1.80
2023-01-20T01:17:53.850Z,1.80
2023-01-20T01:22:02.403Z,1.90
2023-01-20T01:26:11.450Z,1.80
2023-01-20T01:30:20.096Z,1.80
2023-01-20T01:34:48.024Z,1.80
2023-01-20T01:38:57.400Z,1.80
2023-01-20T01:43:09.870Z,1.80
2023-01-20T01:47:18.753Z,1.80
2023-01-20T01:51:30.423Z,1.80
2023-01-20T01:55:42.049Z,1.80
2023-01-20T01:59:50.894Z,1.80
2023-01-20T02:04:02.696Z,1.80
2023-01-20T02:08:11.442Z,1.80
2023-01-20T02:12:23.134Z,1.80
2023-01-20T02:16:37.720Z,1.80
2023-01-20T02:21:20.644Z,1.80
2023-01-20T02:26:00.432Z,1.80
2023-01-20T02:30:21.134Z,1.80
2023-01-20T02:34:35.721Z,1.80
2023-01-20T02:38:50.383Z,1.80
2023-01-20T02:43:04.731Z,1.70
2023-01-20T02:47:34.311Z,1.70
2023-01-20T02:51:49.090Z,1.70
2023-01-20T02:55:58.442Z,1.70
2023-01-20T03:00:10.321Z,1.70
2023-01-20T03:04:22.556Z,1.70
2023-01-20T03:08:52.173Z,1.70
2023-01-20T03:13:03.757Z,1.80
2023-01-20T03:17:12.405Z,1.80
2023-01-20T03:21:21.591Z,1.70
2023-01-20T03:25:30.205Z,1.80
2023-01-20T03:29:38.917Z,1.70
2023-01-20T03:33:49.585Z,1.70
2023-01-20T03:37:58.307Z,1.80
2023-01-20T03:42:13.951Z,1.70
2023-01-20T03:46:52.330Z,1.80
2023-01-20T03:51:21.707Z,1.80
2023-01-20T03:55:39.261Z,1.80
2023-01-20T04:00:08.119Z,1.70
2023-01-20T04:04:19.928Z,1.70
2023-01-20T04:08:31.996Z,1.70
2023-01-20T04:12:40.727Z,1.70
2023-01-20T04:16:55.394Z,1.70
2023-01-20T04:21:04.867Z,1.80
2023-01-20T04:25:22.122Z,1.80
2023-01-20T04:29:30.706Z,1.80
2023-01-20T04:33:39.639Z,1.80
2023-01-20T04:37:48.176Z,1.80
2023-01-20T04:41:56.897Z,1.80
2023-01-20T04:46:05.622Z,1.80
2023-01-20T04:50:15.169Z,1.70
2023-01-20T04:54:23.733Z,1.80
2023-01-20T04:58:51.796Z,1.80
2023-01-20T05:03:02.427Z,1.80
2023-01-20T05:07:10.986Z,1.80
2023-01-20T05:11:19.550Z,1.80
2023-01-20T05:15:40.489Z,1.80
2023-01-20T05:19:50.561Z,1.80
2023-01-20T05:23:59.124Z,1.80
2023-01-20T05:28:07.705Z,1.80
2023-01-20T05:32:16.281Z,1.80
2023-01-20T05:36:24.794Z,1.90
2023-01-20T05:40:35.058Z,1.90
2023-01-20T05:44:43.618Z,2.00
2023-01-20T05:48:52.210Z,1.90
2023-01-20T05:53:00.722Z,1.80
2023-01-20T05:57:09.284Z,1.90
2023-01-20T06:01:18.123Z,1.80
2023-01-20T06:05:26.762Z,1.80
2023-01-20T06:09:35.329Z,1.80
2023-01-20T06:13:43.895Z,1.60
2023-01-20T06:17:53.206Z,1.60
2023-01-20T06:22:01.774Z,1.70
2023-01-20T06:26:29.648Z,1.70
2023-01-20T06:30:38.604Z,1.60
2023-01-20T06:34:48.321Z,1.60
2023-01-20T06:38:58.336Z,1.60
2023-01-20T06:43:06.939Z,1.60
2023-01-20T06:47:15.556Z,1.70
2023-01-20T06:51:24.076Z,1.70
2023-01-20T06:55:32.731Z,1.80
2023-01-20T06:59:41.309Z,1.80
2023-01-20T07:03:50.154Z,1.90
2023-01-20T07:07:58.701Z,1.80
2023-01-20T07:12:07.694Z,1.80
2023-01-20T07:16:35.768Z,1.70
2023-01-20T07:20:44.446Z,1.70
2023-01-20T07:24:53.078Z,1.70
2023-01-20T07:29:01.810Z,1.70
2023-01-20T07:33:10.645Z,1.70
2023-01-20T07:37:19.175Z,1.80
2023-01-20T07:41:27.796Z,1.80
2023-01-20T07:45:36.370Z,1.70
2023-01-20T07:49:45.810Z,1.70
2023-01-20T07:53:54.363Z,1.80
2023-01-20T07:58:03.174Z,1.80
2023-01-20T08:02:11.872Z,1.80
2023-01-20T08:06:23.052Z,1.80
2023-01-20T08:10:32.045Z,1.80
2023-01-20T08:14:42.951Z,1.80
2023-01-20T08:18:54.819Z,1.80
2023-01-20T08:23:03.365Z,1.80
2023-01-20T08:27:11.964Z,1.80
2023-01-20T08:31:40.051Z,1.90
2023-01-20T08:35:49.074Z,1.90
2023-01-20T08:39:57.805Z,2.00
2023-01-20T08:44:08.072Z,1.90
2023-01-20T08:48:18.363Z,1.90
2023-01-20T08:52:46.323Z,1.90
2023-01-20T08:56:54.855Z,1.90
2023-01-20T09:01:05.037Z,1.90
2023-01-20T09:05:14.983Z,1.90
2023-01-20T09:09:43.263Z,1.90
2023-01-20T09:14:03.760Z,1.90
2023-01-20T09:18:12.397Z,1.90
2023-01-20T09:22:21.026Z,2.00
2023-01-20T09:26:49.623Z,2.10
2023-01-20T09:31:04.275Z,2.10
2023-01-20T09:35:13.446Z,2.10
2023-01-20T09:39:40.382Z,2.20
2023-01-20T09:43:57.836Z,2.20
2023-01-20T09:48:32.977Z,2.30
2023-01-20T09:53:00.008Z,2.40
2023-01-20T09:57:11.737Z,2.30
2023-01-20T10:01:41.300Z,2.40
2023-01-20T10:05:52.854Z,2.40
2023-01-20T10:10:23.613Z,2.50
2023-01-20T10:14:38.273Z,2.50
2023-01-20T10:19:11.272Z,2.60
2023-01-20T10:23:35.157Z,2.60
2023-01-20T10:27:52.796Z,2.60
2023-01-20T10:32:03.720Z,2.70
2023-01-20T10:36:18.049Z,2.60
2023-01-20T10:40:47.500Z,2.60
2023-01-20T10:44:56.713Z,2.70
2023-01-20T10:49:25.734Z,2.70
2023-01-20T10:53:40.179Z,2.70
2023-01-20T10:57:57.551Z,2.80
2023-01-20T11:02:18.050Z,2.80
2023-01-20T11:06:27.972Z,2.80
2023-01-20T11:10:36.479Z,2.80
2023-01-20T11:14:46.817Z,2.90
2023-01-20T11:19:03.596Z,2.90
2023-01-20T11:23:49.696Z,3.00
2023-01-20T11:27:58.379Z,3.00
2023-01-20T11:32:10.047Z,3.00
2023-01-20T11:36:19.757Z,3.00
2023-01-20T11:40:29.824Z,3.10
2023-01-20T11:45:19.575Z,3.10
2023-01-20T11:49:36.043Z,3.20
2023-01-20T11:53:45.674Z,3.30
2023-01-20T11:58:00.003Z,3.30
2023-01-20T12:02:28.860Z,3.30
2023-01-20T12:06:42.308Z,3.30
2023-01-20T12:10:52.084Z,3.20
2023-01-20T12:15:06.830Z,3.20
2023-01-20T12:19:36.252Z,3.20
2023-01-20T12:23:47.842Z,3.20
2023-01-20T12:28:24.706Z,3.20
2023-01-20T12:32:33.509Z,3.30
2023-01-20T12:36:47.836Z,3.30
2023-01-20T12:40:59.430Z,3.30
2023-01-20T12:45:27.827Z,3.30
2023-01-20T12:49:51.455Z,3.20
2023-01-20T12:54:30.527Z,3.20
2023-01-20T12:58:40.399Z,3.30
2023-01-20T13:02:58.217Z,3.30
2023-01-20T13:07:15.918Z,3.20
2023-01-20T13:11:57.665Z,3.20
2023-01-20T13:16:18.546Z,3.20
2023-01-20T13:20:29.507Z,3.30
2023-01-20T13:24:39.364Z,3.30
2023-01-20T13:28:56.228Z,3.30
2023-01-20T13:33:08.810Z,3.20
2023-01-20T13:37:29.307Z,3.20
2023-01-20T13:41:49.402Z,3.20
2023-01-20T13:46:10.052Z,3.20
2023-01-20T13:50:27.851Z,3.30
2023-01-20T13:54:44.951Z,3.20
2023-01-20T13:58:54.492Z,3.20
2023-01-20T14:03:06.126Z,3.30
2023-01-20T14:07:29.472Z,3.20
2023-01-20T14:11:41.202Z,3.20
2023-01-20T14:15:52.361Z,3.20
2023-01-20T14:20:00.916Z,3.30
2023-01-20T14:24:35.711Z,3.20
2023-01-20T14:28:58.950Z,3.20
2023-01-20T14:33:09.306Z,3.20
2023-01-20T14:37:38.290Z,3.20
2023-01-20T14:42:07.740Z,3.20
2023-01-20T14:46:16.983Z,3.20
2023-01-20T14:50:26.453Z,3.10
2023-01-20T14:54:40.884Z,3.10
2023-01-20T14:58:50.584Z,3.10
2023-01-20T15:03:11.870Z,3.10
2023-01-20T15:07:21.521Z,3.10
2023-01-20T15:11:31.396Z,3.00
2023-01-20T15:15:40.040Z,3.00
2023-01-20T15:19:48.554Z,3.00
2023-01-20T15:23:58.736Z,3.00
2023-01-20T15:28:07.314Z,3.00
2023-01-20T15:32:15.941Z,3.00
2023-01-20T15:36:45.928Z,2.90
2023-01-20T15:40:54.702Z,2.90
2023-01-20T15:45:03.332Z,2.90
2023-01-20T15:49:12.574Z,3.00
2023-01-20T15:53:40.410Z,2.90
2023-01-20T15:57:51.477Z,2.90
2023-01-20T16:02:00.211Z,2.90
2023-01-20T16:06:17.573Z,2.90
2023-01-20T16:10:26.109Z,2.90
2023-01-20T16:14:34.866Z,2.90
2023-01-20T16:18:43.502Z,2.90
2023-01-20T16:22:52.528Z,2.90
2023-01-20T16:27:01.083Z,2.90
2023-01-20T16:31:12.948Z,2.90
2023-01-20T16:35:23.608Z,2.90
2023-01-20T16:39:32.361Z,2.90
2023-01-20T16:44:00.352Z,2.80
2023-01-20T16:48:09.308Z,2.80
2023-01-20T16:52:17.842Z,2.80
2023-01-20T16:56:31.309Z,2.80
2023-01-20T17:00:40.510Z,2.60
2023-01-20T17:04:49.123Z,2.60
2023-01-20T17:08:59.391Z,2.60
2023-01-20T17:13:07.963Z,2.50
2023-01-20T17:17:16.548Z,2.40
2023-01-20T17:21:26.408Z,2.30
2023-01-20T17:25:34.962Z,2.20
2023-01-20T17:29:43.576Z,2.20
2023-01-20T17:33:52.351Z,2.10
2023-01-20T17:38:20.275Z,2.10
2023-01-20T17:42:28.900Z,2.10
2023-01-20T17:46:37.510Z,2.10
2023-01-20T17:50:46.309Z,2.00
2023-01-20T17:54:55.129Z,2.00
2023-01-20T17:59:03.673Z,2.00
2023-01-20T18:03:12.354Z,1.90
2023-01-20T18:07:20.899Z,2.00
2023-01-20T18:11:32.247Z,2.00
2023-01-20T18:15:42.669Z,1.90
2023-01-20T18:19:51.375Z,1.90
2023-01-20T18:24:00.702Z,1.90
2023-01-20T18:28:10.902Z,1.90
2023-01-20T18:32:19.425Z,1.80
2023-01-20T18:36:30.342Z,1.80
2023-01-20T18:40:38.920Z,1.90
2023-01-20T18:44:47.548Z,1.90
2023-01-20T18:49:16.995Z,1.90
2023-01-20T18:53:25.636Z,1.90
2023-01-20T18:57:34.329Z,1.80
2023-01-20T19:01:43.520Z,1.70
2023-01-20T19:05:52.195Z,1.70
2023-01-20T19:10:00.789Z,1.70
2023-01-20T19:14:14.404Z,1.70
2023-01-20T19:18:23.000Z,1.70
2023-01-20T19:22:53.032Z,1.70
2023-01-20T19:27:03.025Z,1.70
2023-01-20T19:31:14.651Z,1.70
2023-01-20T19:35:23.318Z,1.60
2023-01-20T19:39:51.311Z,1.60
2023-01-20T19:44:03.124Z,1.60
2023-01-20T19:48:11.835Z,1.60
2023-01-20T19:52:20.461Z,1.60
2023-01-20T19:56:32.242Z,1.50
2023-01-20T20:00:40.789Z,1.40
2023-01-20T20:04:49.360Z,1.40
2023-01-20T20:09:00.551Z,1.40
2023-01-20T20:13:09.136Z,1.40
2023-01-20T20:17:17.695Z,1.40
2023-01-20T20:21:27.542Z,1.30
2023-01-20T20:25:37.727Z,1.30
2023-01-20T20:29:46.410Z,1.30
2023-01-20T20:33:55.734Z,1.30
2023-01-20T20:38:04.736Z,1.30
2023-01-20T20:42:13.336Z,1.30
2023-01-20T20:46:22.220Z,1.40
2023-01-20T20:50:30.868Z,1.40
2023-01-20T20:54:40.376Z,1.30
2023-01-20T20:59:00.828Z,1.30
2023-01-20T21:02:59.170Z,1.30
2023-01-20T21:07:27.124Z,1.20
2023-01-20T21:11:38.263Z,1.30
2023-01-20T21:16:24.299Z,1.20
2023-01-20T21:20:33.592Z,1.10
2023-01-20T21:24:42.150Z,1.10
2023-01-20T21:28:50.848Z,1.10
2023-01-20T21:32:59.445Z,1.10
2023-01-20T21:37:08.445Z,1.00
2023-01-20T21:41:17.653Z,1.10
2023-01-20T21:45:26.202Z,1.00
2023-01-20T21:49:52.938Z,1.00
2023-01-20T21:54:01.559Z,1.10
2023-01-20T21:58:10.260Z,1.10
2023-01-20T22:02:19.230Z,1.10
2023-01-20T22:06:47.182Z,1.10
2023-01-20T22:11:01.671Z,1.20
2023-01-20T22:15:10.818Z,1.10
2023-01-20T22:19:19.517Z,1.10
2023-01-20T22:23:28.066Z,1.10
2023-01-20T22:27:37.751Z,1.10
2023-01-20T22:32:05.805Z,1.10
2023-01-20T22:36:14.514Z,1.10
2023-01-20T22:40:23.163Z,1.10
2023-01-20T22:44:51.133Z,1.10
2023-01-20T22:49:00.505Z,1.10
2023-01-20T22:53:28.450Z,1.00
2023-01-20T22:57:37.083Z,1.00
2023-01-20T23:01:45.706Z,0.90
2023-01-20T23:05:56.916Z,0.90
2023-01-20T23:10:06.718Z,0.80
2023-01-20T23:14:15.347Z,0.70
2023-01-20T23:18:24.935Z,0.60
2023-01-20T23:22:33.585Z,0.50
2023-01-20T23:26:42.191Z,0.60
2023-01-20T23:30:50.850Z,0.60
2023-01-20T23:34:59.549Z,0.60
2023-01-20T23:39:08.077Z,0.60
2023-01-20T23:43:16.703Z,0.60
2023-01-20T23:47:44.583Z,0.50
2023-01-20T23:51:53.110Z,0.60
2023-01-20T23:56:04.200Z,0.60
